Time;durP1;ratioP1;P1;durP2;ratioP2;P2;SDS_P1;SDS_P2;PMS_P1;PMS_P2;Temp;Humidity;BMP_temperature;BMP_pressure;BME280_temperature;BME280_humidity;BME280_pressure;Samples;Min_cycle;Max_cycle;Signal;HPM_P1;HPM_P2
2022/01/14 00:00:17;;;;;;;6.67;5.30;;;3.30;99.90;;;;;;5024207;28;20457;-68
2022/01/14 00:02:44;;;;;;;29.87;9.80;;;3.30;99.90;;;;;;5031109;28;21011;-68
2022/01/14 00:05:11;;;;;;;20.47;8.80;;;3.20;99.90;;;;;;5032647;28;20434;-66
2022/01/14 00:07:38;;;;;;;12.83;6.37;;;3.10;99.90;;;;;;5023898;28;20557;-67
2022/01/14 00:10:08;;;;;;;8.60;4.87;;;3.20;99.90;;;;;;5031369;28;22746;-67
2022/01/14 00:12:40;;;;;;;16.70;9.20;;;3.20;99.90;;;;;;5029204;28;20455;-66
2022/01/14 00:15:24;;;;;;;22.43;8.27;;;3.20;99.90;;;;;;5023019;28;20448;-67
2022/01/14 00:17:51;;;;;;;10.63;5.07;;;3.20;99.90;;;;;;5034836;28;20584;-67
2022/01/14 00:20:19;;;;;;;16.60;9.70;;;3.20;99.90;;;;;;5033731;28;21131;-66
2022/01/14 00:22:46;;;;;;;13.57;6.37;;;3.10;99.90;;;;;;5026729;28;20818;-66
2022/01/14 00:33:28;;;;;;;16.97;7.33;;;3.10;99.90;;;;;;5020896;28;20421;-67
2022/01/14 00:35:55;;;;;;;16.53;8.77;;;3.10;99.90;;;;;;5024678;28;20755;-67
2022/01/14 00:38:22;;;;;;;14.40;7.87;;;3.10;99.90;;;;;;5018877;28;20881;-67
2022/01/14 00:40:51;;;;;;;15.10;7.63;;;3.00;99.90;;;;;;5026408;28;20556;-67
2022/01/14 00:43:18;;;;;;;13.60;8.83;;;3.00;99.90;;;;;;5019219;28;20944;-67
2022/01/14 00:45:45;;;;;;;20.43;9.30;;;3.00;99.90;;;;;;5021100;28;20521;-67
2022/01/14 00:48:13;;;;;;;18.30;10.73;;;3.10;99.90;;;;;;5026698;28;20487;-67
2022/01/14 00:50:44;;;;;;;22.87;9.03;;;3.00;99.90;;;;;;5025724;28;20440;-67
2022/01/14 00:53:11;;;;;;;15.77;9.13;;;3.00;99.90;;;;;;5018599;28;21211;-66
2022/01/14 00:55:48;;;;;;;17.30;8.43;;;3.00;99.90;;;;;;5023841;28;20470;-67
2022/01/14 01:01:00;;;;;;;18.87;8.60;;;3.00;99.90;;;;;;5025223;28;20518;-67
2022/01/14 01:03:28;;;;;;;10.27;6.53;;;3.00;99.90;;;;;;5027681;28;20455;-66
2022/01/14 01:05:56;;;;;;;12.70;7.47;;;3.00;99.90;;;;;;5025578;28;20462;-67
2022/01/14 01:08:24;;;;;;;21.67;9.00;;;3.00;99.90;;;;;;5016962;28;20461;-67
2022/01/14 01:10:51;;;;;;;11.20;7.07;;;2.90;99.90;;;;;;5017488;28;20458;-67
2022/01/14 01:13:23;;;;;;;19.80;9.00;;;2.80;99.90;;;;;;5020617;28;20459;-67
2022/01/14 01:15:50;;;;;;;23.50;10.10;;;2.80;99.90;;;;;;5028360;28;21386;-68
2022/01/14 01:18:19;;;;;;;12.17;8.50;;;2.90;99.90;;;;;;5022358;28;20480;-67
2022/01/14 01:20:46;;;;;;;22.50;7.93;;;2.80;99.90;;;;;;5031048;28;20525;-67
2022/01/14 01:23:14;;;;;;;20.53;11.20;;;2.70;99.90;;;;;;5026703;28;20459;-67
2022/01/14 01:25:45;;;;;;;15.03;6.87;;;2.80;99.90;;;;;;5026154;28;20438;-68
2022/01/14 01:28:13;;;;;;;12.43;6.87;;;2.90;99.90;;;;;;5028809;28;20490;-67
2022/01/14 01:31:02;;;;;;;24.00;8.73;;;2.90;99.90;;;;;;5026761;28;21700;-66
2022/01/14 01:33:29;;;;;;;24.17;8.80;;;3.00;99.90;;;;;;5028060;28;20538;-68
2022/01/14 01:35:57;;;;;;;9.77;4.63;;;2.90;99.90;;;;;;5030601;28;20923;-66
2022/01/14 01:38:24;;;;;;;18.60;8.60;;;2.80;99.90;;;;;;5035055;28;20966;-66
2022/01/14 01:40:51;;;;;;;13.33;5.87;;;2.80;99.90;;;;;;5023913;28;20483;-68
2022/01/14 01:43:20;;;;;;;17.07;8.60;;;2.90;99.90;;;;;;5024548;28;20464;-67
2022/01/14 01:45:50;;;;;;;17.20;6.90;;;2.80;99.90;;;;;;5029895;28;20457;-68
2022/01/14 01:48:17;;;;;;;19.73;7.37;;;2.80;99.90;;;;;;5028807;28;20458;-68
2022/01/14 01:50:45;;;;;;;14.20;9.43;;;2.80;99.90;;;;;;5031394;28;20808;-68
2022/01/14 01:53:12;;;;;;;16.13;8.00;;;2.70;99.90;;;;;;5031307;28;20587;-68
2022/01/14 01:55:39;;;;;;;18.10;8.80;;;2.80;99.90;;;;;;5027199;28;21591;-68
2022/01/14 01:58:06;;;;;;;48.20;12.30;;;2.90;99.90;;;;;;5034433;28;20489;-67
2022/01/14 02:00:33;;;;;;;11.20;7.13;;;3.00;99.90;;;;;;5030720;28;20570;-68
2022/01/14 02:03:03;;;;;;;19.97;11.33;;;3.00;99.90;;;;;;5031886;28;20496;-66
2022/01/14 02:05:30;;;;;;;9.13;7.87;;;2.90;99.90;;;;;;5025993;28;20463;-68
2022/01/14 02:07:57;;;;;;;17.57;8.30;;;2.80;99.90;;;;;;5022857;28;20633;-69
2022/01/14 02:10:25;;;;;;;15.73;7.83;;;2.80;99.90;;;;;;5029152;28;20707;-68
2022/01/14 02:12:54;;;;;;;11.93;8.13;;;2.80;99.90;;;;;;5024229;28;20440;-67
2022/01/14 02:15:46;;;;;;;18.63;7.13;;;2.90;99.90;;;;;;5031432;28;20471;-67
2022/01/14 02:24:08;;;;;;;17.53;8.50;;;2.80;99.90;;;;;;5025276;28;20572;-68
2022/01/14 02:26:48;;;;;;;20.50;7.67;;;2.90;99.90;;;;;;5030238;28;20490;-68
2022/01/14 02:29:15;;;;;;;24.93;9.50;;;3.00;99.90;;;;;;5022984;28;20449;-67
2022/01/14 02:31:42;;;;;;;17.37;9.80;;;3.00;99.90;;;;;;5022503;28;20464;-68
2022/01/14 02:34:11;;;;;;;12.50;7.23;;;3.10;99.90;;;;;;5030903;28;20516;-69
2022/01/14 02:36:41;;;;;;;27.97;8.73;;;3.10;99.90;;;;;;5034880;28;21095;-68
2022/01/14 02:39:09;;;;;;;13.90;8.73;;;3.10;99.90;;;;;;5030745;28;20433;-69
2022/01/14 02:41:36;;;;;;;19.13;7.20;;;3.10;99.90;;;;;;5037411;28;20582;-68
2022/01/14 02:44:05;;;;;;;26.70;9.60;;;3.20;99.90;;;;;;5032779;28;20488;-69
2022/01/14 02:46:37;;;;;;;17.67;7.53;;;3.10;99.90;;;;;;5033441;28;20590;-68
2022/01/14 02:49:04;;;;;;;20.40;9.80;;;3.10;99.90;;;;;;5031283;28;21638;-69
2022/01/14 02:51:32;;;;;;;26.37;9.17;;;3.20;99.90;;;;;;5024412;28;21240;-68
2022/01/14 02:54:12;;;;;;;11.47;8.20;;;3.20;99.90;;;;;;5020437;28;21229;-68
2022/01/14 02:56:42;;;;;;;17.47;8.63;;;3.20;99.90;;;;;;5028479;28;21492;-68
2022/01/14 02:59:10;;;;;;;14.67;7.70;;;3.20;99.90;;;;;;5033448;28;20893;-68
2022/01/14 03:01:41;;;;;;;12.83;5.97;;;3.10;99.90;;;;;;5028864;28;20968;-68
2022/01/14 03:04:09;;;;;;;22.57;13.07;;;3.10;99.90;;;;;;5026231;28;21111;-66
2022/01/14 03:06:36;;;;;;;14.13;9.20;;;3.00;99.90;;;;;;5024450;28;20603;-67
2022/01/14 03:09:05;;;;;;;16.57;7.60;;;3.10;99.90;;;;;;5030475;28;21220;-67
2022/01/14 03:11:38;;;;;;;9.23;5.20;;;3.10;99.90;;;;;;5028825;28;20458;-67
2022/01/14 03:14:05;;;;;;;18.63;7.83;;;3.20;99.90;;;;;;5019665;28;20970;-67
2022/01/14 03:16:38;;;;;;;24.37;9.50;;;3.20;99.90;;;;;;5031720;28;20795;-67
2022/01/14 03:19:09;;;;;;;14.77;8.53;;;3.20;99.90;;;;;;5026445;28;20548;-66
2022/01/14 03:21:40;;;;;;;25.60;9.60;;;3.20;99.90;;;;;;5035649;28;21145;-67
2022/01/14 03:24:20;;;;;;;19.87;8.40;;;3.40;99.90;;;;;;5030943;28;20536;-66
2022/01/14 03:26:49;;;;;;;15.97;8.50;;;3.30;99.90;;;;;;5029049;28;21518;-66
2022/01/14 03:29:17;;;;;;;19.03;9.17;;;3.40;99.90;;;;;;5030286;28;20530;-66
2022/01/14 03:31:45;;;;;;;7.77;3.77;;;3.50;99.90;;;;;;5028651;28;21214;-67
2022/01/14 03:34:12;;;;;;;21.40;8.73;;;3.50;99.90;;;;;;5031067;28;20945;-67
2022/01/14 03:36:39;;;;;;;20.20;10.83;;;3.30;99.90;;;;;;5027988;28;20487;-67
2022/01/14 03:39:08;;;;;;;25.20;8.03;;;3.40;99.90;;;;;;5026483;28;20470;-67
2022/01/14 03:41:35;;;;;;;29.90;10.80;;;3.40;99.90;;;;;;5026963;28;20462;-67
2022/01/14 03:44:01;;;;;;;21.23;6.47;;;3.40;99.90;;;;;;5031968;28;20528;-67
2022/01/14 03:46:28;;;;;;;27.63;7.17;;;3.40;99.90;;;;;;5027552;28;20531;-67
2022/01/14 03:48:55;;;;;;;21.23;8.27;;;3.40;99.90;;;;;;5024409;28;20586;-67
2022/01/14 03:51:24;;;;;;;18.10;7.23;;;3.40;99.90;;;;;;5023550;28;21893;-66
2022/01/14 03:53:51;;;;;;;21.13;8.80;;;3.40;99.90;;;;;;5021836;28;21577;-66
2022/01/14 03:56:21;;;;;;;25.20;7.63;;;3.30;99.90;;;;;;5022283;28;20469;-66
2022/01/14 03:58:48;;;;;;;16.23;8.43;;;3.30;99.90;;;;;;5026718;28;20441;-69
2022/01/14 04:01:15;;;;;;;29.17;10.67;;;3.40;99.90;;;;;;5013654;28;20826;-67
2022/01/14 04:03:43;;;;;;;22.73;11.37;;;3.30;99.90;;;;;;5021237;28;20461;-67
2022/01/14 04:06:11;;;;;;;28.23;13.30;;;3.30;99.90;;;;;;5008202;28;21464;-67
2022/01/14 04:08:39;;;;;;;13.87;7.07;;;3.40;99.90;;;;;;5018524;28;20490;-67
2022/01/14 04:11:07;;;;;;;20.37;9.87;;;3.20;99.90;;;;;;5018919;28;20513;-67
2022/01/14 04:13:43;;;;;;;28.23;9.67;;;3.10;99.90;;;;;;5017334;28;20463;-67
2022/01/14 04:16:10;;;;;;;15.87;8.37;;;3.30;99.90;;;;;;5019007;28;20455;-67
2022/01/14 04:18:37;;;;;;;19.03;11.43;;;3.30;99.90;;;;;;5024364;28;20629;-67
2022/01/14 04:21:04;;;;;;;18.00;8.87;;;3.40;99.90;;;;;;5012051;28;20475;-67
2022/01/14 04:23:31;;;;;;;27.83;9.50;;;3.50;99.90;;;;;;5011226;28;20483;-68
2022/01/14 04:25:59;;;;;;;21.90;8.80;;;3.60;99.90;;;;;;5022685;28;20526;-67
2022/01/14 04:28:30;;;;;;;15.03;8.77;;;3.60;99.90;;;;;;4990091;28;1130144;-68
2022/01/14 04:30:59;;;;;;;18.80;9.93;;;3.60;99.90;;;;;;5014625;28;20632;-67
2022/01/14 04:33:28;;;;;;;14.03;8.93;;;3.70;99.90;;;;;;5018343;28;20445;-67
2022/01/14 04:35:55;;;;;;;20.93;7.70;;;3.70;99.90;;;;;;5020820;28;21469;-68
2022/01/14 04:38:23;;;;;;;22.10;9.17;;;3.50;99.90;;;;;;5018406;28;21235;-69
2022/01/14 04:40:50;;;;;;;22.30;11.03;;;3.30;99.90;;;;;;5022494;28;21454;-68
2022/01/14 04:43:19;;;;;;;24.33;7.80;;;3.40;99.90;;;;;;4983152;28;20665;-69
2022/01/14 04:46:02;;;;;;;24.43;10.87;;;3.40;99.90;;;;;;5020557;28;20433;-69
2022/01/14 04:48:32;;;;;;;20.27;6.97;;;3.40;99.90;;;;;;5022307;28;20482;-68
2022/01/14 04:51:00;;;;;;;12.00;7.77;;;3.30;99.90;;;;;;5022892;28;20458;-69
2022/01/14 04:53:28;;;;;;;36.47;12.30;;;3.30;99.90;;;;;;5024686;28;21554;-68
2022/01/14 04:55:56;;;;;;;20.00;9.33;;;3.20;99.90;;;;;;5025630;28;20432;-68
2022/01/14 04:58:24;;;;;;;24.27;9.40;;;3.20;99.90;;;;;;5027992;28;21068;-69
2022/01/14 05:00:51;;;;;;;18.17;5.70;;;3.20;99.90;;;;;;5024873;28;20543;-70
2022/01/14 05:03:18;;;;;;;20.53;8.73;;;3.20;99.90;;;;;;5024777;28;20851;-68
2022/01/14 05:05:50;;;;;;;16.50;7.20;;;3.20;99.90;;;;;;5033161;28;21740;-70
2022/01/14 05:08:23;;;;;;;16.63;8.60;;;3.10;99.90;;;;;;5017359;28;20526;-69
2022/01/14 05:11:02;;;;;;;13.37;7.33;;;3.00;99.90;;;;;;5028631;28;20448;-68
2022/01/14 05:13:29;;;;;;;12.30;8.27;;;3.10;99.90;;;;;;5013364;28;20466;-68
2022/01/14 05:15:58;;;;;;;21.97;8.27;;;3.00;99.90;;;;;;5024885;28;20469;-68
2022/01/14 05:18:25;;;;;;;13.80;8.50;;;3.10;99.90;;;;;;5026873;28;20490;-69
2022/01/14 05:20:54;;;;;;;11.70;7.17;;;3.00;99.90;;;;;;5023194;28;20502;-68
2022/01/14 05:23:24;;;;;;;22.53;8.13;;;3.10;99.90;;;;;;5018904;28;20438;-67
2022/01/14 05:25:51;;;;;;;16.07;8.40;;;3.20;99.90;;;;;;5017658;28;20454;-67
2022/01/14 05:28:18;;;;;;;23.43;7.70;;;3.10;99.90;;;;;;5027093;28;20558;-67
2022/01/14 05:30:45;;;;;;;14.43;6.33;;;3.00;99.90;;;;;;5008921;28;20544;-66
2022/01/14 05:33:12;;;;;;;23.53;8.17;;;3.10;99.90;;;;;;5015612;28;21009;-67
2022/01/14 05:35:39;;;;;;;45.47;11.43;;;3.10;99.90;;;;;;5031956;28;20600;-67
2022/01/14 05:38:07;;;;;;;24.90;9.10;;;3.10;99.90;;;;;;5030871;28;20895;-68
2022/01/14 05:40:34;;;;;;;26.10;10.03;;;3.10;99.90;;;;;;5043646;28;20563;-68
2022/01/14 05:43:02;;;;;;;5.17;4.73;;;3.00;99.90;;;;;;5024490;28;20449;-67
2022/01/14 05:45:29;;;;;;;21.93;10.17;;;3.10;99.90;;;;;;5022806;28;21211;-67
2022/01/14 05:47:56;;;;;;;22.13;8.57;;;2.90;99.90;;;;;;5034184;28;20486;-68
2022/01/14 05:50:25;;;;;;;15.83;7.67;;;3.10;99.90;;;;;;5036281;28;20534;-67
2022/01/14 05:52:52;;;;;;;25.73;9.80;;;3.10;99.90;;;;;;5033641;28;20664;-68
2022/01/14 05:55:22;;;;;;;15.20;6.83;;;3.10;99.90;;;;;;5030632;28;21027;-68
2022/01/14 05:57:49;;;;;;;26.97;10.17;;;3.10;99.90;;;;;;5021549;28;20565;-67
2022/01/14 06:00:18;;;;;;;16.10;8.50;;;3.30;99.90;;;;;;5020455;28;20553;-67
2022/01/14 06:02:46;;;;;;;37.90;12.90;;;3.40;99.90;;;;;;5025473;28;20573;-67
2022/01/14 06:05:13;;;;;;;25.20;8.10;;;3.30;99.90;;;;;;5028671;28;22370;-67
2022/01/14 06:07:40;;;;;;;32.70;10.10;;;3.10;99.90;;;;;;5036089;28;20514;-67
2022/01/14 06:10:09;;;;;;;12.43;6.07;;;3.10;99.90;;;;;;5035484;28;20464;-67
2022/01/14 06:12:37;;;;;;;20.67;12.47;;;3.20;99.90;;;;;;5036181;28;20426;-68
2022/01/14 06:15:05;;;;;;;21.13;10.83;;;3.10;99.90;;;;;;5034035;28;20549;-67
2022/01/14 06:17:32;;;;;;;10.87;5.23;;;3.10;99.90;;;;;;5035903;28;20633;-68
2022/01/14 06:19:59;;;;;;;22.87;9.57;;;3.00;99.90;;;;;;5036797;28;20498;-67
2022/01/14 06:22:26;;;;;;;23.90;10.23;;;3.00;99.90;;;;;;5039208;28;20566;-68
2022/01/14 06:24:54;;;;;;;7.70;5.90;;;3.00;99.90;;;;;;5028808;28;20448;-67
2022/01/14 06:27:21;;;;;;;28.37;12.53;;;3.00;99.90;;;;;;5037104;28;20565;-68
2022/01/14 06:29:50;;;;;;;11.20;7.40;;;3.00;99.90;;;;;;5039531;28;20970;-67
2022/01/14 06:32:17;;;;;;;13.50;8.20;;;3.10;99.90;;;;;;5032782;28;20534;-67
2022/01/14 06:34:44;;;;;;;10.50;8.73;;;3.20;99.90;;;;;;5032881;28;21150;-68
2022/01/14 06:37:11;;;;;;;13.53;7.07;;;3.20;99.90;;;;;;5028288;28;20536;-66
2022/01/14 06:39:37;;;;;;;16.30;7.40;;;3.20;99.90;;;;;;5032884;28;20502;-68
2022/01/14 06:42:05;;;;;;;25.60;8.60;;;3.10;99.90;;;;;;5040339;28;21064;-67
2022/01/14 06:44:32;;;;;;;18.77;9.23;;;3.20;99.90;;;;;;5032433;28;20532;-69
2022/01/14 06:47:01;;;;;;;8.03;4.97;;;3.20;99.90;;;;;;5040949;28;21348;-67
2022/01/14 06:49:28;;;;;;;24.67;9.70;;;3.10;99.90;;;;;;5037464;28;20441;-67
2022/01/14 06:51:55;;;;;;;23.00;11.80;;;3.10;99.90;;;;;;5037282;28;20517;-67
2022/01/14 06:54:22;;;;;;;20.83;7.97;;;3.10;99.90;;;;;;5029129;28;20508;-67
2022/01/14 06:56:49;;;;;;;25.40;9.17;;;3.10;99.90;;;;;;5034837;28;20526;-66
2022/01/14 06:59:16;;;;;;;18.27;8.07;;;3.20;99.90;;;;;;5037589;28;20598;-65
2022/01/14 07:01:43;;;;;;;24.20;9.40;;;3.30;99.90;;;;;;5033869;28;21417;-66
2022/01/14 07:04:11;;;;;;;21.53;9.80;;;3.10;99.90;;;;;;5029258;28;20491;-66
2022/01/14 07:06:38;;;;;;;20.87;7.63;;;3.10;99.90;;;;;;5038336;28;20457;-67
2022/01/14 07:09:05;;;;;;;24.00;10.80;;;3.00;99.90;;;;;;5036036;28;20821;-67
2022/01/14 07:11:36;;;;;;;14.87;9.57;;;3.00;99.90;;;;;;5029667;28;20455;-67
2022/01/14 07:14:04;;;;;;;23.33;10.63;;;3.00;99.90;;;;;;5034281;28;20442;-67
2022/01/14 07:16:32;;;;;;;19.27;8.83;;;3.10;99.90;;;;;;5038480;28;21277;-67
2022/01/14 07:19:00;;;;;;;19.30;9.70;;;3.00;99.90;;;;;;5033205;28;20516;-67
2022/01/14 07:21:28;;;;;;;19.10;9.50;;;3.00;99.90;;;;;;5030340;28;20482;-67
2022/01/14 07:23:55;;;;;;;31.10;8.37;;;3.00;99.90;;;;;;5030663;28;20433;-69
2022/01/14 07:26:22;;;;;;;15.83;10.40;;;3.10;99.90;;;;;;5036461;28;20442;-69
2022/01/14 07:28:49;;;;;;;23.00;8.23;;;3.10;99.90;;;;;;5034360;28;20554;-67
2022/01/14 07:31:16;;;;;;;29.83;10.07;;;3.10;99.90;;;;;;5035109;28;20830;-66
2022/01/14 07:33:43;;;;;;;18.33;8.50;;;3.10;99.90;;;;;;5035292;28;20979;-67
2022/01/14 07:36:10;;;;;;;29.13;11.63;;;3.20;99.90;;;;;;5024410;28;20554;-69
2022/01/14 07:38:38;;;;;;;29.17;10.50;;;3.10;99.90;;;;;;5035729;28;20441;-67
2022/01/14 07:41:06;;;;;;;28.13;9.27;;;3.10;99.90;;;;;;5035327;28;20527;-67
2022/01/14 07:43:35;;;;;;;24.67;9.80;;;3.20;99.90;;;;;;5031316;28;20475;-66
2022/01/14 07:46:02;;;;;;;21.53;10.27;;;3.30;99.90;;;;;;5030501;28;20467;-66
2022/01/14 07:48:29;;;;;;;12.13;6.17;;;3.20;99.90;;;;;;5037658;28;20527;-67
2022/01/14 07:50:56;;;;;;;24.90;9.70;;;3.20;99.90;;;;;;5034295;28;21063;-69
2022/01/14 07:53:23;;;;;;;31.03;11.43;;;3.20;99.90;;;;;;5034427;28;21044;-69
2022/01/14 07:55:51;;;;;;;21.73;8.97;;;3.10;99.90;;;;;;5035125;28;20478;-69
2022/01/14 07:58:18;;;;;;;39.10;10.27;;;3.10;99.90;;;;;;5033300;28;21004;-69
2022/01/14 08:00:45;;;;;;;13.90;7.67;;;3.00;99.90;;;;;;5028246;28;20976;-66
2022/01/14 08:03:13;;;;;;;19.70;9.90;;;3.10;99.90;;;;;;5035103;28;20489;-67
2022/01/14 08:05:40;;;;;;;42.37;13.60;;;3.10;99.90;;;;;;5032863;28;20566;-67
2022/01/14 08:08:07;;;;;;;26.03;11.40;;;3.20;99.90;;;;;;5031043;28;20977;-66
2022/01/14 08:10:35;;;;;;;30.03;10.53;;;3.30;99.90;;;;;;5033369;28;20865;-69
2022/01/14 08:13:04;;;;;;;42.27;11.07;;;3.40;99.90;;;;;;5033934;28;20635;-67
2022/01/14 08:15:31;;;;;;;19.13;6.37;;;3.30;99.90;;;;;;5030642;28;20438;-68
2022/01/14 08:17:59;;;;;;;18.03;7.20;;;3.20;99.90;;;;;;5031667;28;20462;-67
2022/01/14 08:20:27;;;;;;;24.03;9.10;;;3.20;99.90;;;;;;5035851;28;20441;-68
2022/01/14 08:22:54;;;;;;;32.60;11.00;;;3.20;99.90;;;;;;5032300;28;20517;-68
2022/01/14 08:25:21;;;;;;;23.53;8.60;;;3.30;99.90;;;;;;5028028;28;20445;-68
2022/01/14 08:27:48;;;;;;;31.43;10.27;;;3.20;99.90;;;;;;5031099;28;20543;-69
2022/01/14 08:30:17;;;;;;;25.30;10.70;;;3.30;99.90;;;;;;5030471;28;20451;-68
2022/01/14 08:32:44;;;;;;;27.33;10.73;;;3.10;99.90;;;;;;5032621;28;20432;-68
2022/01/14 08:35:11;;;;;;;19.10;9.03;;;3.10;99.90;;;;;;5035512;28;20464;-68
2022/01/14 08:37:39;;;;;;;30.27;12.03;;;3.10;99.90;;;;;;5029619;28;20453;-68
2022/01/14 08:40:07;;;;;;;18.30;7.93;;;3.10;99.90;;;;;;5031286;28;20909;-67
2022/01/14 08:42:35;;;;;;;20.87;10.27;;;3.20;99.90;;;;;;5030573;28;20452;-67
2022/01/14 08:45:02;;;;;;;22.33;8.30;;;3.20;99.90;;;;;;5033075;28;20494;-67
2022/01/14 08:47:30;;;;;;;41.00;11.90;;;3.20;99.90;;;;;;5036954;28;20468;-69
2022/01/14 08:49:58;;;;;;;43.70;9.30;;;3.30;99.90;;;;;;5031174;28;20498;-69
2022/01/14 08:52:25;;;;;;;27.80;11.00;;;3.40;99.90;;;;;;5029025;28;20548;-68
2022/01/14 08:54:52;;;;;;;32.47;11.67;;;3.40;99.90;;;;;;5032038;28;20452;-68
2022/01/14 08:57:21;;;;;;;25.17;12.00;;;3.50;99.90;;;;;;5030847;28;22751;-69
2022/01/14 08:59:48;;;;;;;35.60;12.77;;;3.40;99.90;;;;;;5039858;28;20913;-69
2022/01/14 09:02:15;;;;;;;29.10;13.13;;;3.40;99.90;;;;;;5034806;28;20605;-67
2022/01/14 09:04:44;;;;;;;34.13;11.77;;;3.40;99.90;;;;;;5039078;28;20491;-71
2022/01/14 09:07:11;;;;;;;25.80;13.10;;;3.40;99.90;;;;;;5037384;28;20479;-69
2022/01/14 09:09:38;;;;;;;27.67;11.23;;;3.20;99.90;;;;;;5035870;28;21026;-69
2022/01/14 09:12:05;;;;;;;40.70;11.47;;;3.30;99.90;;;;;;5036248;28;20512;-70
2022/01/14 09:14:32;;;;;;;29.73;13.70;;;3.30;99.90;;;;;;5039865;28;21138;-68
2022/01/14 09:17:00;;;;;;;20.00;9.57;;;3.40;99.90;;;;;;5032318;28;20544;-70
2022/01/14 09:19:27;;;;;;;17.40;10.60;;;3.50;99.90;;;;;;5038003;28;20467;-68
2022/01/14 09:21:55;;;;;;;26.70;13.40;;;3.50;99.90;;;;;;5032886;28;20531;-68
2022/01/14 09:24:22;;;;;;;25.60;12.17;;;3.60;99.90;;;;;;5036728;28;20475;-67
2022/01/14 09:26:49;;;;;;;40.47;13.20;;;3.70;99.90;;;;;;5029413;28;20639;-66
2022/01/14 09:29:16;;;;;;;46.73;12.77;;;3.60;99.90;;;;;;5035692;28;20786;-68
2022/01/14 09:31:44;;;;;;;22.30;11.33;;;3.60;99.90;;;;;;5040039;28;20475;-69
2022/01/14 09:34:10;;;;;;;28.77;14.83;;;3.70;99.90;;;;;;5039950;28;20461;-69
2022/01/14 09:36:37;;;;;;;31.80;14.43;;;3.70;99.90;;;;;;5035095;28;20596;-69
2022/01/14 09:39:07;;;;;;;13.53;7.37;;;3.80;99.90;;;;;;5037397;28;20495;-69
2022/01/14 09:41:34;;;;;;;37.20;13.50;;;3.80;99.90;;;;;;5039402;28;20438;-69
2022/01/14 09:44:02;;;;;;;34.20;13.57;;;3.80;99.90;;;;;;5033709;28;20486;-69
2022/01/14 09:46:29;;;;;;;20.90;10.87;;;3.90;99.90;;;;;;5041137;28;20459;-68
2022/01/14 09:48:56;;;;;;;18.33;7.90;;;4.00;99.90;;;;;;5039244;28;20477;-67
2022/01/14 09:51:23;;;;;;;21.50;9.87;;;4.00;99.90;;;;;;5034803;28;20442;-68
2022/01/14 09:53:50;;;;;;;21.30;10.43;;;4.00;99.90;;;;;;5037124;28;20576;-68
2022/01/14 09:56:22;;;;;;;22.00;13.70;;;4.00;99.90;;;;;;5042753;28;20457;-69
2022/01/14 09:58:51;;;;;;;21.07;10.50;;;4.10;99.90;;;;;;5054692;28;20442;-68
2022/01/14 10:01:19;;;;;;;28.17;10.43;;;4.10;99.90;;;;;;5038669;28;20455;-70
2022/01/14 10:03:54;;;;;;;17.10;7.97;;;4.10;99.90;;;;;;5042062;28;20482;-67
2022/01/14 10:06:38;;;;;;;43.60;15.30;;;4.30;99.90;;;;;;5028552;28;20511;-68
2022/01/14 10:09:11;;;;;;;23.27;13.20;;;4.10;99.90;;;;;;5027515;28;20526;-68
2022/01/14 10:11:42;;;;;;;22.00;6.97;;;4.10;99.90;;;;;;5037253;28;20450;-69
2022/01/14 10:14:12;;;;;;;45.47;12.40;;;4.10;99.90;;;;;;5037474;28;21351;-69
2022/01/14 10:16:41;;;;;;;28.83;10.80;;;4.10;99.90;;;;;;5035183;28;21191;-69
2022/01/14 10:19:22;;;;;;;20.73;9.23;;;4.10;99.90;;;;;;5036193;28;20469;-68
2022/01/14 10:21:50;;;;;;;18.13;7.63;;;4.10;99.90;;;;;;5039359;28;20599;-67
2022/01/14 10:24:18;;;;;;;28.70;12.70;;;4.10;99.90;;;;;;5038095;28;21098;-70
2022/01/14 10:26:56;;;;;;;25.80;11.50;;;4.20;99.90;;;;;;5033448;28;20492;-67
2022/01/14 10:29:35;;;;;;;37.90;13.67;;;4.30;99.90;;;;;;5031668;28;20581;-67
2022/01/14 10:32:04;;;;;;;27.00;10.57;;;4.20;99.90;;;;;;5037863;28;20460;-72
2022/01/14 10:34:31;;;;;;;20.60;10.83;;;4.30;99.90;;;;;;5034749;28;20850;-70
2022/01/14 10:37:10;;;;;;;38.23;13.97;;;4.40;99.90;;;;;;5036033;28;20570;-67
2022/01/14 10:39:47;;;;;;;33.73;12.07;;;4.50;99.90;;;;;;5037835;28;20543;-68
2022/01/14 10:42:29;;;;;;;15.77;10.40;;;4.50;99.90;;;;;;5035650;28;20515;-70
2022/01/14 10:45:17;;;;;;;31.13;11.60;;;4.40;99.90;;;;;;5039428;28;20452;-68
2022/01/14 10:47:52;;;;;;;22.60;10.87;;;4.40;99.90;;;;;;5037627;28;20475;-69
2022/01/14 10:50:19;;;;;;;23.17;11.53;;;4.50;99.90;;;;;;5040722;28;20840;-68
2022/01/14 10:52:50;;;;;;;18.07;9.80;;;4.40;99.90;;;;;;5038587;28;20467;-69
2022/01/14 10:55:28;;;;;;;20.53;10.30;;;4.50;99.90;;;;;;5041905;28;20468;-70
2022/01/14 10:57:57;;;;;;;22.83;9.90;;;4.60;99.90;;;;;;5033474;28;20475;-69
2022/01/14 11:00:26;;;;;;;23.30;9.87;;;4.60;99.90;;;;;;5039472;28;20438;-68
2022/01/14 11:02:53;;;;;;;34.57;9.00;;;4.60;99.90;;;;;;5032375;28;20533;-68
2022/01/14 11:05:22;;;;;;;25.10;11.47;;;4.60;99.90;;;;;;5037225;28;20455;-68
2022/01/14 11:07:51;;;;;;;22.77;10.00;;;4.90;99.90;;;;;;5055590;28;20502;-69
2022/01/14 11:10:23;;;;;;;16.23;10.23;;;4.80;99.90;;;;;;5053022;28;20437;-69
2022/01/14 11:12:52;;;;;;;23.53;10.17;;;4.60;99.90;;;;;;5039662;28;20451;-69
2022/01/14 11:15:21;;;;;;;26.07;12.43;;;4.40;99.90;;;;;;5035995;28;20788;-68
2022/01/14 11:17:52;;;;;;;22.33;12.90;;;4.40;99.90;;;;;;5035614;28;22551;-69
2022/01/14 11:20:24;;;;;;;39.77;10.30;;;4.60;99.90;;;;;;5037307;28;20445;-68
2022/01/14 11:25:40;;;;;;;40.90;11.50;;;4.80;99.90;;;;;;5032011;28;20479;-68
2022/01/14 11:28:08;;;;;;;25.73;13.20;;;4.90;99.90;;;;;;5036652;28;20544;-68
2022/01/14 11:30:38;;;;;;;34.67;12.20;;;4.80;99.90;;;;;;5040749;28;20613;-70
2022/01/14 11:33:07;;;;;;;29.93;11.67;;;4.80;99.90;;;;;;5031513;28;20654;-68
2022/01/14 11:35:37;;;;;;;18.80;9.07;;;4.80;99.90;;;;;;5054345;28;20524;-70
2022/01/14 11:38:25;;;;;;;15.77;8.80;;;4.90;99.90;;;;;;5046893;28;20468;-68
2022/01/14 11:40:52;;;;;;;29.33;9.70;;;4.80;99.90;;;;;;5037351;28;20983;-68
2022/01/14 11:43:38;;;;;;;27.50;10.60;;;5.00;99.90;;;;;;5027823;28;21801;-67
2022/01/14 11:46:09;;;;;;;35.83;8.70;;;5.00;99.90;;;;;;5038309;28;20577;-69
2022/01/14 11:48:41;;;;;;;9.93;6.87;;;5.00;99.90;;;;;;5037203;28;20469;-68
2022/01/14 11:51:10;;;;;;;41.27;12.30;;;5.10;99.90;;;;;;5033716;28;20522;-69
2022/01/14 11:53:41;;;;;;;22.47;10.43;;;5.30;99.90;;;;;;5032505;28;21002;-68
2022/01/14 11:56:24;;;;;;;27.60;10.73;;;5.30;99.90;;;;;;5034405;28;20517;-69
2022/01/14 11:58:51;;;;;;;24.83;9.93;;;5.30;99.90;;;;;;5030257;28;20481;-67
2022/01/14 12:01:34;;;;;;;24.67;9.37;;;5.30;99.90;;;;;;5034540;28;22710;-69
2022/01/14 12:04:02;;;;;;;33.33;13.00;;;5.20;99.90;;;;;;5033435;28;20958;-69
2022/01/14 12:06:59;;;;;;;23.53;8.63;;;5.20;99.90;;;;;;5031024;28;21506;-67
2022/01/14 12:09:32;;;;;;;21.13;10.50;;;5.20;99.90;;;;;;5036628;28;20436;-67
2022/01/14 12:12:22;;;;;;;20.37;10.30;;;5.20;99.90;;;;;;5034769;28;20472;-68
2022/01/14 12:14:56;;;;;;;19.43;8.77;;;5.20;99.90;;;;;;5030499;28;20586;-68
2022/01/14 12:17:34;;;;;;;18.60;7.40;;;5.20;99.90;;;;;;5031539;28;20781;-67
2022/01/14 12:20:09;;;;;;;19.13;9.73;;;5.30;99.90;;;;;;5041403;28;20566;-68
2022/01/14 12:22:36;;;;;;;32.53;11.57;;;5.30;99.90;;;;;;5037280;28;20461;-69
2022/01/14 12:25:05;;;;;;;13.23;7.40;;;5.30;99.90;;;;;;5034811;28;20457;-67
2022/01/14 12:27:45;;;;;;;25.07;11.37;;;5.30;99.90;;;;;;5052833;28;20480;-69
2022/01/14 12:30:26;;;;;;;17.67;8.03;;;5.40;99.90;;;;;;5047824;28;20488;-68
2022/01/14 12:32:55;;;;;;;44.60;12.10;;;5.50;99.90;;;;;;5048509;28;20516;-68
2022/01/14 12:35:28;;;;;;;29.17;9.00;;;5.40;99.90;;;;;;5023944;28;20442;-69
2022/01/14 12:37:56;;;;;;;17.17;8.50;;;5.30;99.90;;;;;;5031127;28;20461;-67
2022/01/14 12:40:25;;;;;;;23.07;8.73;;;5.50;99.90;;;;;;5028038;28;20566;-68
2022/01/14 12:42:55;;;;;;;29.90;10.07;;;5.50;99.90;;;;;;5030027;28;20452;-69
2022/01/14 12:45:52;;;;;;;30.87;11.57;;;5.50;99.90;;;;;;5033517;28;20441;-68
2022/01/14 12:48:33;;;;;;;20.57;11.00;;;5.50;99.90;;;;;;5030669;28;20479;-69
2022/01/14 12:51:15;;;;;;;33.30;11.73;;;5.40;99.90;;;;;;5030521;28;20459;-68
2022/01/14 12:53:50;;;;;;;27.57;12.30;;;5.40;99.90;;;;;;5024199;28;21301;-68
2022/01/14 12:56:20;;;;;;;32.63;12.03;;;5.40;99.90;;;;;;5030603;28;20809;-69
2022/01/14 12:58:55;;;;;;;22.70;9.93;;;5.40;99.90;;;;;;5030356;28;20471;-68
2022/01/14 13:01:31;;;;;;;20.30;8.80;;;5.50;99.90;;;;;;5028088;28;20417;-68
2022/01/14 13:04:02;;;;;;;27.53;9.87;;;5.60;99.90;;;;;;5025506;28;20445;-70
2022/01/14 13:06:29;;;;;;;31.73;10.87;;;5.70;99.90;;;;;;5031255;28;20461;-68
2022/01/14 13:08:58;;;;;;;27.33;11.50;;;5.70;99.90;;;;;;5030680;28;20454;-68
2022/01/14 13:11:25;;;;;;;27.60;8.60;;;5.60;99.90;;;;;;5025440;28;20425;-70
2022/01/14 13:14:01;;;;;;;27.50;9.80;;;5.60;99.90;;;;;;5030223;28;20434;-68